sensor_id;sensor_type;location;lat;lon;timestamp;pressure;altitude;pressure_sealevel;temperature;humidity
70458;BME280;57919;56.194;95.716;2023-12-28T00:04:31;99668.69;;;-14.99;75.35
70458;BME280;57919;56.194;95.716;2023-12-28T00:14:35;99652.09;;;-15.06;75.17
70458;BME280;57919;56.194;95.716;2023-12-28T00:24:37;99654.53;;;-15.14;74.84
70458;BME280;57919;56.194;95.716;2023-12-28T00:34:39;99649.94;;;-15.27;75.29
70458;BME280;57919;56.194;95.716;2023-12-28T00:44:41;99667.06;;;-15.35;75.13
70458;BME280;57919;56.194;95.716;2023-12-28T00:54:43;99657.63;;;-15.31;75.65
70458;BME280;57919;56.194;95.716;2023-12-28T01:04:45;99654.63;;;-15.50;74.83
70458;BME280;57919;56.194;95.716;2023-12-28T01:14:47;99676.72;;;-15.68;73.95
70458;BME280;57919;56.194;95.716;2023-12-28T01:24:50;99671.78;;;-15.58;74.73
70458;BME280;57919;56.194;95.716;2023-12-28T01:34:51;99625.94;;;-15.59;74.99
70458;BME280;57919;56.194;95.716;2023-12-28T01:44:53;99623.50;;;-15.51;75.31
70458;BME280;57919;56.194;95.716;2023-12-28T01:54:55;99619.97;;;-15.55;74.76
70458;BME280;57919;56.194;95.716;2023-12-28T02:04:57;99620.81;;;-15.56;74.38
70458;BME280;57919;56.194;95.716;2023-12-28T02:15:00;99608.66;;;-15.60;74.24
70458;BME280;57919;56.194;95.716;2023-12-28T02:25:12;99596.63;;;-15.55;74.46
70458;BME280;57919;56.194;95.716;2023-12-28T02:36:02;99585.69;;;-15.40;74.46
70458;BME280;57919;56.194;95.716;2023-12-28T02:45:39;99576.41;;;-15.30;74.26
70458;BME280;57919;56.194;95.716;2023-12-28T02:55:42;99565.47;;;-15.14;74.51
70458;BME280;57919;56.194;95.716;2023-12-28T03:05:44;99564.47;;;-15.21;74.15
70458;BME280;57919;56.194;95.716;2023-12-28T03:15:46;99555.72;;;-15.27;73.89
70458;BME280;57919;56.194;95.716;2023-12-28T03:25:49;99570.94;;;-15.00;74.16
70458;BME280;57919;56.194;95.716;2023-12-28T03:35:50;99582.53;;;-14.80;74.28
70458;BME280;57919;56.194;95.716;2023-12-28T03:45:53;99566.06;;;-14.82;73.12
70458;BME280;57919;56.194;95.716;2023-12-28T03:55:55;99560.50;;;-14.54;73.42
70458;BME280;57919;56.194;95.716;2023-12-28T04:05:57;99582.59;;;-14.24;73.17
70458;BME280;57919;56.194;95.716;2023-12-28T04:15:59;99558.34;;;-14.25;73.90
70458;BME280;57919;56.194;95.716;2023-12-28T04:26:02;99533.59;;;-14.01;73.57
70458;BME280;57919;56.194;95.716;2023-12-28T04:36:05;99498.31;;;-13.83;73.41
70458;BME280;57919;56.194;95.716;2023-12-28T04:46:07;99489.13;;;-13.56;73.33
70458;BME280;57919;56.194;95.716;2023-12-28T04:56:10;99494.47;;;-13.46;71.52
70458;BME280;57919;56.194;95.716;2023-12-28T05:06:11;99477.94;;;-13.49;70.95
70458;BME280;57919;56.194;95.716;2023-12-28T05:16:13;99470.28;;;-13.35;73.10
70458;BME280;57919;56.194;95.716;2023-12-28T05:26:15;99459.34;;;-12.98;72.49
70458;BME280;57919;56.194;95.716;2023-12-28T05:36:17;99469.06;;;-12.82;71.87
70458;BME280;57919;56.194;95.716;2023-12-28T05:46:19;99446.75;;;-12.48;72.59
70458;BME280;57919;56.194;95.716;2023-12-28T05:56:21;99469.59;;;-12.05;73.24
70458;BME280;57919;56.194;95.716;2023-12-28T06:06:23;99464.28;;;-12.24;70.08
70458;BME280;57919;56.194;95.716;2023-12-28T06:16:25;99457.16;;;-12.48;71.66
70458;BME280;57919;56.194;95.716;2023-12-28T06:26:27;99451.94;;;-12.49;71.72
70458;BME280;57919;56.194;95.716;2023-12-28T06:36:29;99424.31;;;-12.27;72.14
70458;BME280;57919;56.194;95.716;2023-12-28T06:46:31;99422.63;;;-12.16;71.31
70458;BME280;57919;56.194;95.716;2023-12-28T06:56:33;99418.28;;;-12.14;71.13
70458;BME280;57919;56.194;95.716;2023-12-28T07:06:35;99439.16;;;-12.13;71.02
70458;BME280;57919;56.194;95.716;2023-12-28T07:16:37;99438.13;;;-12.39;71.59
70458;BME280;57919;56.194;95.716;2023-12-28T07:26:39;99416.34;;;-12.49;71.71
70458;BME280;57919;56.194;95.716;2023-12-28T07:36:41;99418.03;;;-12.57;72.29
70458;BME280;57919;56.194;95.716;2023-12-28T07:46:44;99416.50;;;-12.26;72.34
70458;BME280;57919;56.194;95.716;2023-12-28T07:56:46;99398.31;;;-12.12;72.31
70458;BME280;57919;56.194;95.716;2023-12-28T08:06:48;99385.28;;;-12.15;71.12
70458;BME280;57919;56.194;95.716;2023-12-28T08:16:50;99391.28;;;-12.27;71.37
70458;BME280;57919;56.194;95.716;2023-12-28T08:26:52;99392.13;;;-12.32;71.78
70458;BME280;57919;56.194;95.716;2023-12-28T08:36:54;99389.50;;;-12.38;71.69
70458;BME280;57919;56.194;95.716;2023-12-28T08:46:57;99381.66;;;-12.43;71.89
70458;BME280;57919;56.194;95.716;2023-12-28T08:56:59;99400.53;;;-12.75;71.68
70458;BME280;57919;56.194;95.716;2023-12-28T09:07:01;99390.13;;;-12.76;71.86
70458;BME280;57919;56.194;95.716;2023-12-28T09:17:03;99383.03;;;-12.94;71.16
70458;BME280;57919;56.194;95.716;2023-12-28T09:27:06;99388.09;;;-13.12;71.98
70458;BME280;57919;56.194;95.716;2023-12-28T09:37:07;99393.41;;;-12.98;71.77
70458;BME280;57919;56.194;95.716;2023-12-28T09:47:10;99412.47;;;-13.02;72.05
70458;BME280;57919;56.194;95.716;2023-12-28T09:57:15;99420.19;;;-13.16;71.54
70458;BME280;57919;56.194;95.716;2023-12-28T10:07:17;99443.63;;;-13.12;71.80
70458;BME280;57919;56.194;95.716;2023-12-28T10:17:19;99416.78;;;-13.06;71.63
70458;BME280;57919;56.194;95.716;2023-12-28T10:27:21;99449.00;;;-12.92;71.89
70458;BME280;57919;56.194;95.716;2023-12-28T10:37:26;99445.59;;;-12.85;72.02
70458;BME280;57919;56.194;95.716;2023-12-28T10:47:31;99444.66;;;-12.93;72.10
70458;BME280;57919;56.194;95.716;2023-12-28T10:57:42;99463.88;;;-12.79;72.30
70458;BME280;57919;56.194;95.716;2023-12-28T11:07:47;99459.53;;;-12.78;71.93
70458;BME280;57919;56.194;95.716;2023-12-28T11:17:52;99473.25;;;-12.96;72.40
70458;BME280;57919;56.194;95.716;2023-12-28T11:27:54;99481.00;;;-13.02;73.08
70458;BME280;57919;56.194;95.716;2023-12-28T11:37:56;99486.34;;;-12.88;73.14
70458;BME280;57919;56.194;95.716;2023-12-28T11:48:01;99474.19;;;-12.91;72.76
70458;BME280;57919;56.194;95.716;2023-12-28T11:58:04;99502.84;;;-12.89;72.49
70458;BME280;57919;56.194;95.716;2023-12-28T12:08:06;99482.94;;;-12.83;73.27
70458;BME280;57919;56.194;95.716;2023-12-28T12:18:10;99503.09;;;-12.60;73.17
70458;BME280;57919;56.194;95.716;2023-12-28T12:28:12;99497.06;;;-12.56;72.48
70458;BME280;57919;56.194;95.716;2023-12-28T12:38:14;99498.19;;;-12.21;72.85
70458;BME280;57919;56.194;95.716;2023-12-28T12:48:16;99506.75;;;-12.38;72.10
70458;BME280;57919;56.194;95.716;2023-12-28T12:58:19;99515.53;;;-12.26;73.07
70458;BME280;57919;56.194;95.716;2023-12-28T13:08:22;99504.41;;;-11.99;72.79
70458;BME280;57919;56.194;95.716;2023-12-28T13:18:24;99490.47;;;-12.05;72.48
70458;BME280;57919;56.194;95.716;2023-12-28T13:28:27;99497.53;;;-11.86;72.93
70458;BME280;57919;56.194;95.716;2023-12-28T13:38:28;99506.19;;;-11.92;73.08
70458;BME280;57919;56.194;95.716;2023-12-28T13:48:30;99515.72;;;-11.95;73.23
70458;BME280;57919;56.194;95.716;2023-12-28T13:58:33;99521.75;;;-12.05;72.92
70458;BME280;57919;56.194;95.716;2023-12-28T14:08:34;99517.38;;;-12.11;73.58
70458;BME280;57919;56.194;95.716;2023-12-28T14:18:36;99540.13;;;-11.87;73.54
70458;BME280;57919;56.194;95.716;2023-12-28T14:28:42;99534.06;;;-11.85;73.89
70458;BME280;57919;56.194;95.716;2023-12-28T14:38:44;99534.94;;;-11.73;73.88
70458;BME280;57919;56.194;95.716;2023-12-28T14:48:47;99551.53;;;-11.65;74.14
70458;BME280;57919;56.194;95.716;2023-12-28T14:58:49;99539.38;;;-11.63;74.79
70458;BME280;57919;56.194;95.716;2023-12-28T15:08:51;99553.34;;;-11.52;75.16
70458;BME280;57919;56.194;95.716;2023-12-28T15:18:53;99556.03;;;-11.31;75.46
70458;BME280;57919;56.194;95.716;2023-12-28T15:28:55;99555.28;;;-11.02;76.09
70458;BME280;57919;56.194;95.716;2023-12-28T15:38:57;99559.69;;;-10.86;76.33
70458;BME280;57919;56.194;95.716;2023-12-28T15:48:58;99568.44;;;-10.67;76.23
70458;BME280;57919;56.194;95.716;2023-12-28T15:59:00;99571.94;;;-10.59;76.25
70458;BME280;57919;56.194;95.716;2023-12-28T16:09:02;99570.22;;;-10.53;76.99
70458;BME280;57919;56.194;95.716;2023-12-28T16:19:07;99572.84;;;-10.39;77.43
70458;BME280;57919;56.194;95.716;2023-12-28T16:29:09;99579.84;;;-10.21;77.59
70458;BME280;57919;56.194;95.716;2023-12-28T16:39:11;99583.28;;;-10.12;77.54
70458;BME280;57919;56.194;95.716;2023-12-28T16:49:14;99580.66;;;-9.93;77.66
70458;BME280;57919;56.194;95.716;2023-12-28T16:59:16;99591.13;;;-9.76;77.32
70458;BME280;57919;56.194;95.716;2023-12-28T17:09:18;99596.34;;;-9.70;78.23
70458;BME280;57919;56.194;95.716;2023-12-28T17:19:20;99600.69;;;-9.56;79.00
70458;BME280;57919;56.194;95.716;2023-12-28T17:29:23;99598.91;;;-9.34;78.92
70458;BME280;57919;56.194;95.716;2023-12-28T17:39:28;99601.44;;;-9.11;79.39
70458;BME280;57919;56.194;95.716;2023-12-28T17:49:30;99597.00;;;-8.92;79.15
70458;BME280;57919;56.194;95.716;2023-12-28T17:59:33;99603.94;;;-8.76;79.54
70458;BME280;57919;56.194;95.716;2023-12-28T18:09:35;99568.94;;;-8.67;80.30
70458;BME280;57919;56.194;95.716;2023-12-28T18:19:41;99586.25;;;-8.42;80.71
70458;BME280;57919;56.194;95.716;2023-12-28T18:29:47;99585.22;;;-8.21;80.43
70458;BME280;57919;56.194;95.716;2023-12-28T18:39:51;99585.09;;;-8.04;80.26
70458;BME280;57919;56.194;95.716;2023-12-28T18:49:53;99593.72;;;-7.90;80.38
70458;BME280;57919;56.194;95.716;2023-12-28T18:59:57;99600.66;;;-7.83;80.99
70458;BME280;57919;56.194;95.716;2023-12-28T19:09:58;99611.03;;;-7.66;81.15
70458;BME280;57919;56.194;95.716;2023-12-28T19:20:01;99615.28;;;-7.55;80.22
70458;BME280;57919;56.194;95.716;2023-12-28T19:30:05;99602.06;;;-7.44;80.21
70458;BME280;57919;56.194;95.716;2023-12-28T19:40:08;99599.31;;;-7.33;80.61
70458;BME280;57919;56.194;95.716;2023-12-28T19:50:10;99594.75;;;-7.14;80.84
70458;BME280;57919;56.194;95.716;2023-12-28T20:00:15;99602.50;;;-7.04;80.43
70458;BME280;57919;56.194;95.716;2023-12-28T20:10:18;99605.06;;;-6.99;80.24
70458;BME280;57919;56.194;95.716;2023-12-28T20:20:20;99618.16;;;-6.95;80.55
70458;BME280;57919;56.194;95.716;2023-12-28T20:30:22;99618.91;;;-6.83;80.24
70458;BME280;57919;56.194;95.716;2023-12-28T20:40:24;99620.66;;;-6.82;81.41
70458;BME280;57919;56.194;95.716;2023-12-28T20:50:26;99598.59;;;-6.71;80.76
70458;BME280;57919;56.194;95.716;2023-12-28T21:00:28;99612.38;;;-6.52;80.09
70458;BME280;57919;56.194;95.716;2023-12-28T21:10:30;99606.13;;;-6.43;79.84
70458;BME280;57919;56.194;95.716;2023-12-28T21:20:33;99611.06;;;-6.21;79.85
70458;BME280;57919;56.194;95.716;2023-12-28T21:30:36;99611.69;;;-6.05;79.26
70458;BME280;57919;56.194;95.716;2023-12-28T21:40:38;99617.69;;;-5.95;80.25
70458;BME280;57919;56.194;95.716;2023-12-28T21:50:43;99622.72;;;-5.81;79.67
70458;BME280;57919;56.194;95.716;2023-12-28T22:00:45;99616.22;;;-5.61;79.59
70458;BME280;57919;56.194;95.716;2023-12-28T22:10:47;99627.34;;;-5.43;78.75
70458;BME280;57919;56.194;95.716;2023-12-28T22:20:49;99628.16;;;-5.40;78.95
70458;BME280;57919;56.194;95.716;2023-12-28T22:30:51;99607.81;;;-5.32;78.52
70458;BME280;57919;56.194;95.716;2023-12-28T22:40:53;99623.50;;;-5.24;78.97
70458;BME280;57919;56.194;95.716;2023-12-28T22:50:55;99632.47;;;-5.34;78.79
70458;BME280;57919;56.194;95.716;2023-12-28T23:00:56;99641.44;;;-5.46;79.72
70458;BME280;57919;56.194;95.716;2023-12-28T23:10:58;99623.13;;;-5.54;79.67
70458;BME280;57919;56.194;95.716;2023-12-28T23:21:01;99628.19;;;-5.41;79.82
70458;BME280;57919;56.194;95.716;2023-12-28T23:31:03;99619.41;;;-5.42;80.14
70458;BME280;57919;56.194;95.716;2023-12-28T23:41:06;99639.41;;;-5.29;80.46
70458;BME280;57919;56.194;95.716;2023-12-28T23:51:08;99629.59;;;-5.22;79.77
